Terminal Aerodrome Forecast
Issued by NWS Springfield, MO

Home | Current Version | Previous Version | Text Only | Print | Product List | Glossary On
Versions: 1 2 3 4 5 6 7 8 9 10 11 12 13 14
000
FTUS43 KSGF 291125
TAFSGF
TAF
KSGF 291125Z 2912/3012 16010KT P6SM SCT070 BKN150 OVC200
     FM291500 19010KT P6SM BKN050 PROB30 2921/3003 4SM TSRA BKN045CB
     FM300300 15008KT P6SM VCSH BKN050=

USA.gov is the U.S. government's official web portal to all federal, state and local government web resources and services.